sensor_id;sensor_type;location;lat;lon;timestamp;P1;P2;P0
72918;PMS7003;68407;55.694;26.994;2023-05-10T00:01:45;2.4;1.9;1.7
72918;PMS7003;68407;55.694;26.994;2023-05-10T00:06:49;3.1;2.3;1.9
72918;PMS7003;68407;55.694;26.994;2023-05-10T00:11:25;2.6;1.9;1.7
72918;PMS7003;68407;55.694;26.994;2023-05-10T00:17:01;3.5;2.3;1.9
72918;PMS7003;68407;55.694;26.994;2023-05-10T00:21:49;2.9;2.3;1.8
72918;PMS7003;68407;55.694;26.994;2023-05-10T00:27:11;2.7;1.7;1.5
72918;PMS7003;68407;55.694;26.994;2023-05-10T00:31:51;2.8;2.4;2
72918;PMS7003;68407;55.694;26.994;2023-05-10T00:36:25;3.2;2.3;1.8
72918;PMS7003;68407;55.694;26.994;2023-05-10T00:41:41;2.4;2;1.7
72918;PMS7003;68407;55.694;26.994;2023-05-10T00:47:09;2.6;1.7;1.5
72918;PMS7003;68407;55.694;26.994;2023-05-10T00:52:09;2.1;1.7;1.4
72918;PMS7003;68407;55.694;26.994;2023-05-10T00:56:49;2;1.8;1.5
72918;PMS7003;68407;55.694;26.994;2023-05-10T01:01:27;2.8;1.9;1.4
72918;PMS7003;68407;55.694;26.994;2023-05-10T01:06:35;2.4;1.8;1.5
72918;PMS7003;68407;55.694;26.994;2023-05-10T01:11:43;2.2;2;1.7
72918;PMS7003;68407;55.694;26.994;2023-05-10T01:16:49;2.1;1.6;1.5
72918;PMS7003;68407;55.694;26.994;2023-05-10T01:21:27;2.1;1.9;1.7
72918;PMS7003;68407;55.694;26.994;2023-05-10T01:27:18;2.1;1.7;1.3
72918;PMS7003;68407;55.694;26.994;2023-05-10T01:32:10;1.9;1.5;1.3
72918;PMS7003;68407;55.694;26.994;2023-05-10T01:36:27;1.7;1.6;1.4
72918;PMS7003;68407;55.694;26.994;2023-05-10T01:41:54;2.3;1.9;1.6
72918;PMS7003;68407;55.694;26.994;2023-05-10T01:47:06;1.9;1.6;1.4
72918;PMS7003;68407;55.694;26.994;2023-05-10T01:51:59;2.2;1.9;1.6
72918;PMS7003;68407;55.694;26.994;2023-05-10T01:56:45;2;1.5;1.3
72918;PMS7003;68407;55.694;26.994;2023-05-10T02:02:10;2.7;2;1.6
72918;PMS7003;68407;55.694;26.994;2023-05-10T02:07:09;2.2;1.8;1.6
72918;PMS7003;68407;55.694;26.994;2023-05-10T02:12:09;1.7;1.5;1.3
72918;PMS7003;68407;55.694;26.994;2023-05-10T02:16:33;2.4;1.7;1.4
72918;PMS7003;68407;55.694;26.994;2023-05-10T02:22:07;2.4;1.9;1.5
72918;PMS7003;68407;55.694;26.994;2023-05-10T02:26:59;1.8;1.6;1.4
72918;PMS7003;68407;55.694;26.994;2023-05-10T02:31:25;2.4;2.1;1.6
72918;PMS7003;68407;55.694;26.994;2023-05-10T02:36:25;2.1;1.8;1.6
72918;PMS7003;68407;55.694;26.994;2023-05-10T02:42:07;2.5;2;1.8
72918;PMS7003;68407;55.694;26.994;2023-05-10T02:46:35;1.5;1.4;1.3
72918;PMS7003;68407;55.694;26.994;2023-05-10T02:52:09;2.3;2;1.7
72918;PMS7003;68407;55.694;26.994;2023-05-10T02:57:10;2;1.9;1.5
72918;PMS7003;68407;55.694;26.994;2023-05-10T03:01:25;2.8;1.7;1.5
72918;PMS7003;68407;55.694;26.994;2023-05-10T03:06:33;2.4;1.7;1.5
72918;PMS7003;68407;55.694;26.994;2023-05-10T03:11:28;2.4;1.9;1.6
72918;PMS7003;68407;55.694;26.994;2023-05-10T03:16:36;2.3;1.7;1.3
72918;PMS7003;68407;55.694;26.994;2023-05-10T03:22:03;2.8;2.1;2
72918;PMS7003;68407;55.694;26.994;2023-05-10T03:26:26;3;1.8;1.5
72918;PMS7003;68407;55.694;26.994;2023-05-10T03:31:25;2.9;2.2;2
72918;PMS7003;68407;55.694;26.994;2023-05-10T03:36:53;2.4;2.1;1.9
72918;PMS7003;68407;55.694;26.994;2023-05-10T03:42:09;2.4;2;1.9
72918;PMS7003;68407;55.694;26.994;2023-05-10T03:46:41;3;2.3;2.1
72918;PMS7003;68407;55.694;26.994;2023-05-10T03:51:45;3.1;2.2;1.8
72918;PMS7003;68407;55.694;26.994;2023-05-10T03:56:25;3.1;2;1.6
72918;PMS7003;68407;55.694;26.994;2023-05-10T04:02:09;3.1;2.2;1.9
72918;PMS7003;68407;55.694;26.994;2023-05-10T04:06:25;3;2.6;2.2
72918;PMS7003;68407;55.694;26.994;2023-05-10T04:11:41;3.7;2.9;2.4
72918;PMS7003;68407;55.694;26.994;2023-05-10T04:16:53;2.6;2.2;1.9
72918;PMS7003;68407;55.694;26.994;2023-05-10T04:21:35;3.4;2.5;2.2
72918;PMS7003;68407;55.694;26.994;2023-05-10T04:26:35;3.3;2.6;2.1
72918;PMS7003;68407;55.694;26.994;2023-05-10T04:31:59;4.2;3.4;2.9
72918;PMS7003;68407;55.694;26.994;2023-05-10T04:37:09;3.8;2.8;2.4
72918;PMS7003;68407;55.694;26.994;2023-05-10T04:41:25;3.6;3.1;2.7
72918;PMS7003;68407;55.694;26.994;2023-05-10T04:46:51;3.6;2.8;2.5
72918;PMS7003;68407;55.694;26.994;2023-05-10T04:51:59;4.7;3.8;3.2
72918;PMS7003;68407;55.694;26.994;2023-05-10T04:56:57;3.6;3.2;2.9
72918;PMS7003;68407;55.694;26.994;2023-05-10T05:01:43;5.2;3.8;3.3
72918;PMS7003;68407;55.694;26.994;2023-05-10T05:06:27;3.6;3.3;2.6
72918;PMS7003;68407;55.694;26.994;2023-05-10T05:12:05;3.7;2.9;2.3
72918;PMS7003;68407;55.694;26.994;2023-05-10T05:17:07;3.1;2.8;2.4
72918;PMS7003;68407;55.694;26.994;2023-05-10T05:21:25;3.6;2.8;2.4
72918;PMS7003;68407;55.694;26.994;2023-05-10T05:27:07;4.2;2.9;2.5
72918;PMS7003;68407;55.694;26.994;2023-05-10T05:31:57;3.7;3.1;2.6
72918;PMS7003;68407;55.694;26.994;2023-05-10T05:36:35;3.7;3.4;2.9
72918;PMS7003;68407;55.694;26.994;2023-05-10T05:41:25;4.2;3.3;2.9
72918;PMS7003;68407;55.694;26.994;2023-05-10T05:47:07;4.6;3.2;2.8
72918;PMS7003;68407;55.694;26.994;2023-05-10T05:51:33;3.8;3.4;2.9
72918;PMS7003;68407;55.694;26.994;2023-05-10T05:56:57;4.1;3.5;2.9
72918;PMS7003;68407;55.694;26.994;2023-05-10T06:02:07;3.5;3.3;2.9
72918;PMS7003;68407;55.694;26.994;2023-05-10T06:06:35;3.9;3.7;3.1
72918;PMS7003;68407;55.694;26.994;2023-05-10T06:11:42;3;2.8;2.4
72918;PMS7003;68407;55.694;26.994;2023-05-10T06:16:47;4.3;3.7;3
72918;PMS7003;68407;55.694;26.994;2023-05-10T06:21:39;4.5;3.6;3
72918;PMS7003;68407;55.694;26.994;2023-05-10T06:26:57;4.2;3.4;3
72918;PMS7003;68407;55.694;26.994;2023-05-10T06:31:47;3.9;3.4;2.8
72918;PMS7003;68407;55.694;26.994;2023-05-10T06:36:38;4.4;3.7;3.2
72918;PMS7003;68407;55.694;26.994;2023-05-10T06:41:49;4.2;3.6;3.2
72918;PMS7003;68407;55.694;26.994;2023-05-10T06:47:05;4.8;3.7;3
72918;PMS7003;68407;55.694;26.994;2023-05-10T06:51:33;4.2;3.2;2.6
72918;PMS7003;68407;55.694;26.994;2023-05-10T06:56:39;3.6;3.3;2.9
72918;PMS7003;68407;55.694;26.994;2023-05-10T07:01:47;5.1;4.1;3.5
72918;PMS7003;68407;55.694;26.994;2023-05-10T07:07:03;4.4;3.9;3.2
72918;PMS7003;68407;55.694;26.994;2023-05-10T07:11:53;4.9;4.1;3.7
72918;PMS7003;68407;55.694;26.994;2023-05-10T07:16:31;4.5;3.6;3
72918;PMS7003;68407;55.694;26.994;2023-05-10T07:22:07;5;3.9;3.4
72918;PMS7003;68407;55.694;26.994;2023-05-10T07:26:47;3.7;3.1;2.6
72918;PMS7003;68407;55.694;26.994;2023-05-10T07:31:33;5.3;4.3;3.7
72918;PMS7003;68407;55.694;26.994;2023-05-10T07:36:31;6.6;5;4.4
72918;PMS7003;68407;55.694;26.994;2023-05-10T07:42:07;5.9;4.8;3.9
72918;PMS7003;68407;55.694;26.994;2023-05-10T07:46:25;5.4;4.7;3.8
72918;PMS7003;68407;55.694;26.994;2023-05-10T07:52:05;4.6;4;3.5
72918;PMS7003;68407;55.694;26.994;2023-05-10T07:57:05;5.5;4.6;3.9
72918;PMS7003;68407;55.694;26.994;2023-05-10T08:01:34;4.3;3.4;2.9
72918;PMS7003;68407;55.694;26.994;2023-05-10T08:06:41;5.3;4.7;4
72918;PMS7003;68407;55.694;26.994;2023-05-10T08:11:55;5.5;4.6;3.8
72918;PMS7003;68407;55.694;26.994;2023-05-10T08:17:05;5;4.1;3.3
72918;PMS7003;68407;55.694;26.994;2023-05-10T08:22:05;4.8;4.3;3.6
72918;PMS7003;68407;55.694;26.994;2023-05-10T08:26:25;4.3;3.7;3.2
72918;PMS7003;68407;55.694;26.994;2023-05-10T08:32:07;3.6;3.1;2.7
72918;PMS7003;68407;55.694;26.994;2023-05-10T08:36:57;3.1;2.6;2.3
72918;PMS7003;68407;55.694;26.994;2023-05-10T08:41:33;3.9;2.9;2.5
72918;PMS7003;68407;55.694;26.994;2023-05-10T08:46:41;2.5;2.2;1.8
72918;PMS7003;68407;55.694;26.994;2023-05-10T08:52:07;2.9;2.5;2.1
72918;PMS7003;68407;55.694;26.994;2023-05-10T08:56:25;2.9;2.7;2.3
72918;PMS7003;68407;55.694;26.994;2023-05-10T09:01:42;3.5;2.9;2.2
72918;PMS7003;68407;55.694;26.994;2023-05-10T09:07:05;3.4;2.6;2.3
72918;PMS7003;68407;55.694;26.994;2023-05-10T09:11:33;3.6;2.9;2.5
72918;PMS7003;68407;55.694;26.994;2023-05-10T09:16:41;3.2;2.3;1.9
72918;PMS7003;68407;55.694;26.994;2023-05-10T09:21:47;3;2.2;1.9
72918;PMS7003;68407;55.694;26.994;2023-05-10T09:26:25;2.5;1.7;1.4
72918;PMS7003;68407;55.694;26.994;2023-05-10T09:31:57;2.2;2;1.8
72918;PMS7003;68407;55.694;26.994;2023-05-10T09:36:51;2.8;2.2;1.8
72918;PMS7003;68407;55.694;26.994;2023-05-10T09:42:04;2.5;2.1;1.7
72918;PMS7003;68407;55.694;26.994;2023-05-10T09:46:50;2.4;2;1.6
72918;PMS7003;68407;55.694;26.994;2023-05-10T09:52:06;2.4;2;1.7
72918;PMS7003;68407;55.694;26.994;2023-05-10T09:56:39;2.5;1.8;1.7
72918;PMS7003;68407;55.694;26.994;2023-05-10T10:01:25;2.1;1.6;1.4
72918;PMS7003;68407;55.694;26.994;2023-05-10T10:06:41;2.5;1.9;1.7
72918;PMS7003;68407;55.694;26.994;2023-05-10T10:12:07;2.4;2;1.8
72918;PMS7003;68407;55.694;26.994;2023-05-10T10:16:39;2.2;2;1.7
72918;PMS7003;68407;55.694;26.994;2023-05-10T10:21:39;3.1;2.4;2
72918;PMS7003;68407;55.694;26.994;2023-05-10T10:27:15;3;2.3;2
72918;PMS7003;68407;55.694;26.994;2023-05-10T10:31:46;2.6;1.9;1.7
72918;PMS7003;68407;55.694;26.994;2023-05-10T10:36:25;2.8;2.2;2
72918;PMS7003;68407;55.694;26.994;2023-05-10T10:41:48;2.8;2.4;2.1
72918;PMS7003;68407;55.694;26.994;2023-05-10T10:47:06;2.4;2;1.7
72918;PMS7003;68407;55.694;26.994;2023-05-10T10:51:28;2;1.8;1.5
72918;PMS7003;68407;55.694;26.994;2023-05-10T10:57:10;2.2;2.2;1.8
72918;PMS7003;68407;55.694;26.994;2023-05-10T11:02:06;2.4;1.9;1.7
72918;PMS7003;68407;55.694;26.994;2023-05-10T11:06:28;2.7;2.2;2
72918;PMS7003;68407;55.694;26.994;2023-05-10T11:11:34;2.9;1.9;1.6
72918;PMS7003;68407;55.694;26.994;2023-05-10T11:16:55;2.1;1.9;1.7
72918;PMS7003;68407;55.694;26.994;2023-05-10T11:21:50;2.4;2.2;2
72918;PMS7003;68407;55.694;26.994;2023-05-10T11:26:57;2.4;2.1;1.7
72918;PMS7003;68407;55.694;26.994;2023-05-10T11:31:56;2.9;1.8;1.5
72918;PMS7003;68407;55.694;26.994;2023-05-10T11:37:05;2.3;1.9;1.6
72918;PMS7003;68407;55.694;26.994;2023-05-10T11:41:49;1.9;1.7;1.5
72918;PMS7003;68407;55.694;26.994;2023-05-10T11:46:26;2.8;2.1;1.8
72918;PMS7003;68407;55.694;26.994;2023-05-10T11:51:25;2.3;2.2;1.8
72918;PMS7003;68407;55.694;26.994;2023-05-10T11:57:05;2.4;1.8;1.6
72918;PMS7003;68407;55.694;26.994;2023-05-10T12:01:34;3.1;2.2;1.9
72918;PMS7003;68407;55.694;26.994;2023-05-10T12:06:57;2.1;1.8;1.5
72918;PMS7003;68407;55.694;26.994;2023-05-10T12:11:57;2.7;1.6;1.2
72918;PMS7003;68407;55.694;26.994;2023-05-10T12:16:33;2.3;2;1.6
72918;PMS7003;68407;55.694;26.994;2023-05-10T12:21:41;1.7;1.3;1.1
72918;PMS7003;68407;55.694;26.994;2023-05-10T12:26:39;1.6;1.4;1.2
72918;PMS7003;68407;55.694;26.994;2023-05-10T12:31:25;2;1.5;1.4
72918;PMS7003;68407;55.694;26.994;2023-05-10T12:36:50;2;1.7;1.4
72918;PMS7003;68407;55.694;26.994;2023-05-10T12:41:50;1.8;1.5;1.1
72918;PMS7003;68407;55.694;26.994;2023-05-10T12:46:25;3.1;2.2;1.9
72918;PMS7003;68407;55.694;26.994;2023-05-10T12:51:49;1.9;1.6;1.4
72918;PMS7003;68407;55.694;26.994;2023-05-10T12:57:05;2;1.5;1.3
72918;PMS7003;68407;55.694;26.994;2023-05-10T13:01:39;1.8;1.4;1.1
72918;PMS7003;68407;55.694;26.994;2023-05-10T13:06:45;2.4;1.7;1.4
72918;PMS7003;68407;55.694;26.994;2023-05-10T13:11:35;1.9;1.7;1.4
72918;PMS7003;68407;55.694;26.994;2023-05-10T13:17:09;2.7;1.2;1.1
72918;PMS7003;68407;55.694;26.994;2023-05-10T13:21:25;2;1.7;1.3
72918;PMS7003;68407;55.694;26.994;2023-05-10T13:26:41;1.6;1.4;1.1
72918;PMS7003;68407;55.694;26.994;2023-05-10T13:32:09;2;1.6;1.3
72918;PMS7003;68407;55.694;26.994;2023-05-10T13:36:49;2;1.6;1.3
72918;PMS7003;68407;55.694;26.994;2023-05-10T13:41:41;1.7;1.1;1
72918;PMS7003;68407;55.694;26.994;2023-05-10T13:46:39;1.7;1.1;0.9
72918;PMS7003;68407;55.694;26.994;2023-05-10T13:52:07;1.5;1.5;1.3
72918;PMS7003;68407;55.694;26.994;2023-05-10T13:56:36;1.8;1.7;1.5
72918;PMS7003;68407;55.694;26.994;2023-05-10T14:02:08;2;1.6;1.5
72918;PMS7003;68407;55.694;26.994;2023-05-10T14:07:07;2.3;1.8;1.5
72918;PMS7003;68407;55.694;26.994;2023-05-10T14:11:35;2.1;1.7;1.4
72918;PMS7003;68407;55.694;26.994;2023-05-10T14:16:44;1.8;1.4;1.1
72918;PMS7003;68407;55.694;26.994;2023-05-10T14:21:57;1.6;1.2;0.9
72918;PMS7003;68407;55.694;26.994;2023-05-10T14:26:51;2;1.2;0.9
72918;PMS7003;68407;55.694;26.994;2023-05-10T14:31:59;1.7;1.5;1.2
72918;PMS7003;68407;55.694;26.994;2023-05-10T14:36:25;2.1;1.5;1.3
72918;PMS7003;68407;55.694;26.994;2023-05-10T14:42:07;2.1;1.6;1.2
72918;PMS7003;68407;55.694;26.994;2023-05-10T14:46:51;1.8;1.4;1.1
72918;PMS7003;68407;55.694;26.994;2023-05-10T14:51:39;1.9;1.5;1.2
72918;PMS7003;68407;55.694;26.994;2023-05-10T14:56:58;1.2;1.1;0.8
72918;PMS7003;68407;55.694;26.994;2023-05-10T15:02:08;1.5;1.3;1
72918;PMS7003;68407;55.694;26.994;2023-05-10T15:06:34;1.5;1.4;1.2
72918;PMS7003;68407;55.694;26.994;2023-05-10T15:11:57;2;1.6;1.3
72918;PMS7003;68407;55.694;26.994;2023-05-10T15:16:57;2.1;1.7;1.3
72918;PMS7003;68407;55.694;26.994;2023-05-10T15:21:25;2.4;1.8;1.6
72918;PMS7003;68407;55.694;26.994;2023-05-10T15:26:51;2;1.8;1.5
72918;PMS7003;68407;55.694;26.994;2023-05-10T15:31:50;4.9;4;3.6
72918;PMS7003;68407;55.694;26.994;2023-05-10T15:36:25;2.1;1.7;1.5
72918;PMS7003;68407;55.694;26.994;2023-05-10T15:41:59;2.6;2.2;1.9
72918;PMS7003;68407;55.694;26.994;2023-05-10T15:47:07;4.6;3.9;3.3
72918;PMS7003;68407;55.694;26.994;2023-05-10T15:51:33;3.7;3.2;2.7
72918;PMS7003;68407;55.694;26.994;2023-05-10T15:56:51;4.6;3.8;3.2
72918;PMS7003;68407;55.694;26.994;2023-05-10T16:02:08;1.5;1.4;1.1
72918;PMS7003;68407;55.694;26.994;2023-05-10T16:06:42;1.8;1.7;1.4
72918;PMS7003;68407;55.694;26.994;2023-05-10T16:11:44;1.7;1.5;1.3
72918;PMS7003;68407;55.694;26.994;2023-05-10T16:16:34;1.9;1.5;1.3
72918;PMS7003;68407;55.694;26.994;2023-05-10T16:22:08;2.7;2.1;1.7
72918;PMS7003;68407;55.694;26.994;2023-05-10T16:26:41;2.1;1.8;1.5
72918;PMS7003;68407;55.694;26.994;2023-05-10T16:31:32;2.4;1.5;1.3
72918;PMS7003;68407;55.694;26.994;2023-05-10T16:37:07;2.5;2;1.6
72918;PMS7003;68407;55.694;26.994;2023-05-10T16:41:49;2;1.7;1.3
72918;PMS7003;68407;55.694;26.994;2023-05-10T16:46:25;2;1.9;1.6
72918;PMS7003;68407;55.694;26.994;2023-05-10T16:51:26;2.4;2.1;1.7
72918;PMS7003;68407;55.694;26.994;2023-05-10T16:57:07;2.9;2.5;2.2
72918;PMS7003;68407;55.694;26.994;2023-05-10T17:01:39;2.5;1.9;1.6
72918;PMS7003;68407;55.694;26.994;2023-05-10T17:07:08;3.3;2.7;2.1
72918;PMS7003;68407;55.694;26.994;2023-05-10T17:12:08;3.4;3;2.6
72918;PMS7003;68407;55.694;26.994;2023-05-10T17:16:36;4.1;3;2.5
72918;PMS7003;68407;55.694;26.994;2023-05-10T17:22:00;2.8;2.5;2
72918;PMS7003;68407;55.694;26.994;2023-05-10T17:26:38;2.3;2.1;1.7
72918;PMS7003;68407;55.694;26.994;2023-05-10T17:31:52;2.4;1.7;1.5
72918;PMS7003;68407;55.694;26.994;2023-05-10T17:36:58;2.3;1.9;1.7
72918;PMS7003;68407;55.694;26.994;2023-05-10T17:41:48;2.5;1.8;1.5
72918;PMS7003;68407;55.694;26.994;2023-05-10T17:47:08;2.3;1.9;1.6
72918;PMS7003;68407;55.694;26.994;2023-05-10T17:51:52;2.6;2;1.7
72918;PMS7003;68407;55.694;26.994;2023-05-10T17:56:26;2.2;1.7;1.5
72918;PMS7003;68407;55.694;26.994;2023-05-10T18:01:26;2.1;1.8;1.5
72918;PMS7003;68407;55.694;26.994;2023-05-10T18:07:08;2.7;2;1.7
72918;PMS7003;68407;55.694;26.994;2023-05-10T18:11:26;2.7;2.1;1.7
72918;PMS7003;68407;55.694;26.994;2023-05-10T18:16:58;2.9;2.2;1.9
72918;PMS7003;68407;55.694;26.994;2023-05-10T18:21:56;2.3;1.9;1.7
72918;PMS7003;68407;55.694;26.994;2023-05-10T18:26:34;2.2;1.7;1.5
72918;PMS7003;68407;55.694;26.994;2023-05-10T18:31:52;2.3;2.2;1.8
72918;PMS7003;68407;55.694;26.994;2023-05-10T18:36:48;3.1;2.2;2
72918;PMS7003;68407;55.694;26.994;2023-05-10T18:41:26;3.3;2.4;2
72918;PMS7003;68407;55.694;26.994;2023-05-10T18:47:00;3;2.7;2.1
72918;PMS7003;68407;55.694;26.994;2023-05-10T18:52:08;2.6;2.3;2
72918;PMS7003;68407;55.694;26.994;2023-05-10T18:56:36;3.6;2.5;2.2
72918;PMS7003;68407;55.694;26.994;2023-05-10T19:02:08;3.1;2.7;2.3
72918;PMS7003;68407;55.694;26.994;2023-05-10T19:07:00;3;2.4;2.2
72918;PMS7003;68407;55.694;26.994;2023-05-10T19:11:58;3.3;2.8;2.4
72918;PMS7003;68407;55.694;26.994;2023-05-10T19:16:26;3.4;2.9;2.5
72918;PMS7003;68407;55.694;26.994;2023-05-10T19:21:58;3.6;3;2.6
72918;PMS7003;68407;55.694;26.994;2023-05-10T19:27:08;3.5;2.9;2.5
72918;PMS7003;68407;55.694;26.994;2023-05-10T19:32:12;3.7;3.1;2.6
72918;PMS7003;68407;55.694;26.994;2023-05-10T19:36:26;3.3;2.6;2.3
72918;PMS7003;68407;55.694;26.994;2023-05-10T19:42:12;3.6;2.8;2.3
72918;PMS7003;68407;55.694;26.994;2023-05-10T19:47:02;3.8;3.4;2.8
72918;PMS7003;68407;55.694;26.994;2023-05-10T19:51:36;3.5;2.9;2.4
72918;PMS7003;68407;55.694;26.994;2023-05-10T19:56:34;3.4;2.9;2.3
72918;PMS7003;68407;55.694;26.994;2023-05-10T20:02:08;3.5;3.1;2.6
72918;PMS7003;68407;55.694;26.994;2023-05-10T20:06:26;3.3;2.8;2.6
72918;PMS7003;68407;55.694;26.994;2023-05-10T20:12:08;3.7;2.9;2.5
72918;PMS7003;68407;55.694;26.994;2023-05-10T20:17:08;4;3.1;2.6
72918;PMS7003;68407;55.694;26.994;2023-05-10T20:21:26;2.8;2.3;2
72918;PMS7003;68407;55.694;26.994;2023-05-10T20:26:36;4.1;2.9;2.3
72918;PMS7003;68407;55.694;26.994;2023-05-10T20:32:00;3.9;3.3;2.9
72918;PMS7003;68407;55.694;26.994;2023-05-10T20:36:54;3.1;2.9;2.5
72918;PMS7003;68407;55.694;26.994;2023-05-10T20:41:58;2.8;2.3;2
72918;PMS7003;68407;55.694;26.994;2023-05-10T20:46:26;3.7;2.9;2.4
72918;PMS7003;68407;55.694;26.994;2023-05-10T20:52:02;3.8;3;2.6
72918;PMS7003;68407;55.694;26.994;2023-05-10T20:56:54;3.6;3.2;2.5
72918;PMS7003;68407;55.694;26.994;2023-05-10T21:01:26;3.4;2.9;2.6
72918;PMS7003;68407;55.694;26.994;2023-05-10T21:06:42;3.7;3.1;2.5
72918;PMS7003;68407;55.694;26.994;2023-05-10T21:12:06;3.4;2.8;2.6
72918;PMS7003;68407;55.694;26.994;2023-05-10T21:16:42;3.1;2.8;2.4
72918;PMS7003;68407;55.694;26.994;2023-05-10T21:22:08;3.3;2.7;2.2
72918;PMS7003;68407;55.694;26.994;2023-05-10T21:26:28;3.3;2.8;2.5
72918;PMS7003;68407;55.694;26.994;2023-05-10T21:31:26;3.5;3.1;2.7
72918;PMS7003;68407;55.694;26.994;2023-05-10T21:37:08;2.8;2.4;2
72918;PMS7003;68407;55.694;26.994;2023-05-10T21:41:50;3.4;3;2.5
72918;PMS7003;68407;55.694;26.994;2023-05-10T21:46:36;3.2;2.7;2.3
72918;PMS7003;68407;55.694;26.994;2023-05-10T21:52:00;3;2.5;2.3
72918;PMS7003;68407;55.694;26.994;2023-05-10T21:57:10;3.4;2.5;2.3
72918;PMS7003;68407;55.694;26.994;2023-05-10T22:01:50;3.5;3;2.5
72918;PMS7003;68407;55.694;26.994;2023-05-10T22:06:52;3.6;2.8;2.3
72918;PMS7003;68407;55.694;26.994;2023-05-10T22:12:02;3.4;2.7;2.2
72918;PMS7003;68407;55.694;26.994;2023-05-10T22:16:58;2.6;2.3;1.7
72918;PMS7003;68407;55.694;26.994;2023-05-10T22:21:44;3.7;2.7;2.4
72918;PMS7003;68407;55.694;26.994;2023-05-10T22:26:58;3.3;2.7;2.3
72918;PMS7003;68407;55.694;26.994;2023-05-10T22:32:08;3.3;2.7;2.4
72918;PMS7003;68407;55.694;26.994;2023-05-10T22:37:08;2.7;2.4;2
72918;PMS7003;68407;55.694;26.994;2023-05-10T22:41:26;2;1.7;1.3
72918;PMS7003;68407;55.694;26.994;2023-05-10T22:46:50;3;2.2;1.8
72918;PMS7003;68407;55.694;26.994;2023-05-10T22:51:52;3;2.6;2.2
72918;PMS7003;68407;55.694;26.994;2023-05-10T22:56:36;2.8;2.5;2.1
72918;PMS7003;68407;55.694;26.994;2023-05-10T23:01:26;2.9;2.3;2
72918;PMS7003;68407;55.694;26.994;2023-05-10T23:07:06;3.2;2.8;2.4
72918;PMS7003;68407;55.694;26.994;2023-05-10T23:11:26;2.8;2.3;1.9
72918;PMS7003;68407;55.694;26.994;2023-05-10T23:16:56;2.9;2.5;1.9
72918;PMS7003;68407;55.694;26.994;2023-05-10T23:22:06;2.8;2.3;2
72918;PMS7003;68407;55.694;26.994;2023-05-10T23:26:26;2.6;2.3;1.9
72918;PMS7003;68407;55.694;26.994;2023-05-10T23:31:42;3.3;2.7;2.3
72918;PMS7003;68407;55.694;26.994;2023-05-10T23:36:46;3.3;2.4;2.1
72918;PMS7003;68407;55.694;26.994;2023-05-10T23:41:34;3.1;2.4;2.1
72918;PMS7003;68407;55.694;26.994;2023-05-10T23:46:58;2.8;2.2;2
72918;PMS7003;68407;55.694;26.994;2023-05-10T23:51:26;2.8;2.6;2.3
72918;PMS7003;68407;55.694;26.994;2023-05-10T23:57:04;3.1;2.6;2.3
